Terminal Aerodrome Forecast
Issued by NWS Nashville, TN

Home | Current Version | Previous Version | Text Only | Print | Product List | Glossary On
Versions: 1 2 3 4 5 6 7 8 9 10 11 12 13 14 15 16
867
FTUS44 KOHX 241737
TAFBNA
TAF
KBNA 241737Z 2418/2518 20008KT P6SM SCT060
     FM250000 19003KT P6SM SCT100 BKN250
     FM250900 19003KT P6SM BKN100 BKN250=

USA.gov is the U.S. government's official web portal to all federal, state and local government web resources and services.